Airfield :







YOU CAN JOIN US ON...

 
LOGIN :

Register | Disclaimer

   EN    FR    IT 

 









Legend :    VFR   Marginal VFR   IFR   Intensive IFR   Very Intensive IFR
Visi :
Ceiling :
>= 8 km
>= 3000ft
5 to 8 km
1000 to 3000 ft
1500m to 5 km
500 to 1000 ft
800 to 1500m
200 to 500 ft
< 800m
< 200 ft
Symbols :   Thunderstorms  Fog  Heavy snow  Heavy precipitations  Wind > 20 kt






- Airport Elevation : 1188 ft


KCDA - Caledonia County

CURRENT METAR :
  • 221155Z AUTO 14007KT 5SM BR SCT002 OVC006 11/11 A2971 RMK AO2 T01100107 10110 20075

EXPIRED METARs :
  • 221135Z AUTO 14005KT 3SM -RA SCT002 OVC008 11/10 A2971 RMK AO2 T01050101
  • 221115Z AUTO 13006KT 7SM OVC008 11/10 A2970 RMK AO2 T01050102
  • 221055Z AUTO 13005KT 7SM BKN006 OVC011 11/10 A2970 RMK AO2 T01050101
  • 221035Z AUTO 13008KT 7SM OVC010 11/10 A2969 RMK AO2 T01050102
  • 221015Z AUTO 13008KT 7SM SCT002 BKN010 OVC014 11/10 A2969 RMK AO2 T01050101
  • 220955Z AUTO 14004KT 5SM BR BKN002 OVC010 10/10 A2969 RMK AO2 T01000096
  • 220935Z AUTO 16003KT 4SM -RA SCT002 BKN011 OVC075 10/09 A2970 RMK AO2 T00950092
  • 220915Z AUTO 00000KT 7SM -RA SCT006 BKN065 OVC075 09/09 A2970 RMK AO2 T00920090

TAF N/A
KZBW FIR / North America



MET'MAP, your aeronautical weather chart ! - Copyright ORBIFLY December 2007 - Disclaimer

ORBIFLY MET'MAP TEAM :

Programming & Development : Alexandra Zaïnal
Concept & original design : Baudouin d'Aumeries
Assistance for programming : Marc-Olivier Méhu
Technical & hardware support : Manuel Goepfert

Contact : metmap@orbifly.com




SOURCES & CREDITS :

   NOAA